This demonstration page uses our WeatherBlox Daily Observations layout. Learn more.

39.92423, -83.80882

Hourly Observations for April 29, 2019

Temp ( °F °C ) Dew Point ( °F °C ) Humidity (%) Winds ( mph kmh ) Pressure ( in mb ) Visibility ( mi km ) Precip ( " mm )
1:56 am 01:56 Clear 43 6.1 35 1.7 74 74 E 10 17 30.23 1024 10 16.0934 0.01 0.254
2:56 am 02:56 Clear 40 4.4 35 1.7 83 83 E 6 9 30.23 1024 10 16.0934 0.01 0.254
3:56 am 03:56 Clear 42 5.6 36 2.2 79 79 ESE 9 15 30.21 1023 10 16.0934 0.01 0.254
4:56 am 04:56 Clear 43 6.1 37 2.8 80 80 E 9 15 30.21 1023 10 16.0934 0.01 0.254
5:56 am 05:56 Clear 42 5.6 38 3.3 85 85 E 12 19 30.2 1023 10 16.0934 0 0
6:56 am 06:56 Sunny 43 6.1 39 3.9 86 86 E 10 17 30.2 1023 10 16.0934 0.01 0.254
7:56 am 07:56 Sunny 43 6.1 39 3.9 86 86 E 10 17 30.21 1023 10 16.0934 0 0
8:56 am 08:56 Sunny 46 7.8 39 3.9 77 77 ESE 15 24 30.19 1023 10 16.0934 0 0
9:56 am 09:56 Mostly Sunny 49 9.4 42 5.6 77 77 ESE 14 22 30.18 1022 10 16.0934 0 0
10:56 am 10:56 Mostly Sunny 53 11.7 45 7.2 74 74 ESE 15 24 30.12 1020 10 16.0934 0 0
11:56 am 11:56 Sunny 56 13.3 49 9.4 77 77 SSE 15 24 30.11 1020 10 16.0934 0 0
12:56 pm 12:56 Mostly Sunny 60 15.6 52 11.1 75 75 SSE 16 26 30.06 1018 10 16.0934 0 0
1:56 pm 13:56 Partly Cloudy 63 17.2 52 11.1 68 68 S 9 15 30.04 1017 10 16.0934 0 0
2:56 pm 14:56 Mostly Sunny 66 18.9 55 12.8 68 68 S 14 22 29.99 1016 10 16.0934 0 0
3:56 pm 15:56 Cloudy 68 20 58 14.4 70 70 S 12 19 29.94 1014 10 16.0934 0 0
4:56 pm 16:56 Mostly Cloudy 72 22.2 61 16.1 68 68 SW 13 20 29.97 1015 10 16.0934 0 0
5:56 pm 17:56 Mostly Cloudy 73 22.8 59 15 62 62 WSW 23 37 29.97 1015 10 16.0934 0 0
6:56 pm 18:56 Cloudy 72 22.2 57 13.9 59 59 WSW 20 31 29.98 1015 10 16.0934 0 0
7:56 pm 19:56 Cloudy 71 21.7 56 13.3 59 59 W 23 37 30 1016 10 16.0934 0 0
8:56 pm 20:56 Partly Cloudy 65 18.3 58 14.4 78 78 NW 12 19 30.05 1018 10 16.0934 0 0
9:56 pm 21:56 Clear 59 15 56 13.3 90 90 NW 10 17 30.1 1019 10 16.0934 0 0
10:56 pm 22:56 Mostly Cloudy 57 13.9 54 12.2 90 90 NNW 9 15 30.12 1020 10 16.0934 0 0
11:56 pm 23:56 Mostly Clear 53 11.7 51 10.6 93 93 NNW 9 15 30.14 1021 9 14.48406 0 0

Powered by AerisWeather